Date,TemperatureHighF,TemperatureAvgF,TemperatureLowF,DewpointHighF,DewpointAvgF,DewpointLowF,HumidityHigh,HumidityAvg,HumidityLow,PressureMaxIn,PressureMinIn,WindSpeedMaxMPH,WindSpeedAvgMPH,GustSpeedMaxMPH,PrecipitationSumIn
2013-1-1,42.0,32.3,23.0,24.9,20.2,15.2,79,62,41,30.41,30.27,7,3,11,0.00
2013-1-2,47.9,38.3,27.0,25.9,20.6,14.5,65,49,37,30.31,30.15,9,5,11,0.00
2013-1-3,42.9,35.8,31.2,31.9,25.7,18.4,89,68,46,30.35,30.13,9,5,13,0.00
2013-1-4,43.2,35.7,29.4,29.0,26.6,23.3,86,70,54,30.45,30.34,6,3,7,0.01
2013-1-5,50.8,41.7,33.1,27.6,25.5,21.9,74,54,32,30.49,30.41,6,4,7,0.00
2013-1-6,55.0,49.7,40.6,24.0,18.4,12.8,43,29,23,30.33,30.00,15,8,19,0.00
2013-1-7,54.1,47.6,36.6,23.9,14.5,4.6,54,28,14,29.91,29.79,10,5,22,0.00
2013-1-8,57.6,49.9,41.6,26.2,18.8,11.1,54,30,19,30.16,30.03,9,6,12,0.00
2013-1-9,57.5,47.9,37.2,18.3,14.6,10.1,44,27,16,30.33,30.15,10,4,11,0.00
2013-1-10,60.2,52.9,43.1,21.1,14.6,11.6,35,22,15,30.16,29.86,18,10,31,0.00
2013-1-11,44.2,35.4,23.9,16.3,7.7,1.2,61,34,17,30.05,29.94,7,3,24,0.00
2013-1-12,35.9,29.0,19.2,11.5,6.7,2.7,60,40,25,30.29,30.05,9,4,16,0.00
2013-1-13,42.2,31.4,19.4,8.4,1.8,-4.3,54,30,14,30.30,30.13,12,4,15,0.00
2013-1-14,37.5,28.9,16.4,7.6,1.9,-2.0,53,32,20,30.36,30.19,8,3,10,0.00
2013-1-15,36.2,28.9,16.4,3.5,-3.8,-10.2,51,26,14,30.57,30.35,11,6,16,0.00
2013-1-16,50.8,43.5,34.6,9.8,3.0,-5.2,34,19,14,30.58,30.42,8,5,12,0.00
2013-1-17,58.3,50.6,43.2,11.5,9.4,5.2,26,19,15,30.43,30.30,10,5,11,0.00
2013-1-18,62.1,51.9,39.3,15.9,11.6,5.7,31,20,13,30.36,30.21,5,3,9,0.00
2013-1-19,66.9,54.2,40.3,25.7,19.2,10.5,41,26,15,30.31,30.17,7,3,9,0.00
2013-1-20,68.6,55.4,44.8,30.7,25.8,18.1,51,33,22,30.22,30.04,9,4,13,0.00
2013-1-21,68.3,60.9,52.2,30.2,27.7,23.0,42,29,22,30.15,30.05,7,4,9,0.00
2013-1-22,68.3,57.1,44.5,31.5,26.0,19.9,54,31,16,30.23,30.14,7,4,7,0.00
2013-1-23,70.4,60.9,47.4,28.8,26.1,22.7,43,27,19,30.28,30.17,8,4,13,0.00
2013-1-24,66.0,59.2,53.9,40.0,33.2,29.2,58,38,26,30.22,30.13,7,3,11,0.00
2013-1-25,68.1,62.9,56.3,46.4,39.5,35.8,69,43,33,30.19,30.00,17,5,24,0.00
2013-1-26,63.2,59.8,55.1,51.2,44.7,39.7,86,58,43,30.01,29.87,18,11,33,0.51
2013-1-27,63.5,58.5,54.5,48.9,44.7,42.4,78,60,49,29.99,29.92,9,6,14,0.18
2013-1-28,51.6,45.9,36.0,42.0,35.5,28.5,91,68,48,29.97,29.87,18,10,26,0.24
2013-1-29,46.5,36.3,27.5,33.8,24.3,17.7,92,65,34,30.25,29.97,9,3,11,0.86
2013-1-30,49.7,42.2,33.4,17.3,15.6,12.1,51,35,24,30.41,30.34,10,4,13,0.00
2013-1-31,56.9,50.4,42.5,28.6,24.1,21.4,49,36,29,30.36,30.24,7,2,11,0.00
2013-2-1,64.5,53.9,43.2,26.8,20.5,15.6,42,28,16,30.31,30.22,6,4,8,0.00
2013-2-2,66.8,54.1,41.2,22.8,18.4,9.6,46,27,11,30.33,30.20,6,4,9,0.00
2013-2-3,63.7,54.0,46.7,41.6,24.4,15.0,66,34,20,30.20,29.97,14,3,14,0.00
2013-2-4,64.3,55.9,48.8,36.0,33.8,31.5,59,44,31,30.10,29.98,11,3,15,0.00
2013-2-5,65.0,52.5,40.8,38.5,32.2,26.0,75,49,24,30.07,29.96,11,5,14,0.00
2013-2-6,62.7,52.4,42.6,34.5,30.2,23.5,64,45,24,30.06,29.92,9,4,13,0.00
2013-2-7,61.2,49.8,35.8,35.0,26.7,19.2,78,44,21,30.16,30.04,11,4,15,0.00
2013-2-8,59.9,54.6,47.4,21.3,12.7,-5.2,35,20,7,30.04,29.78,17,11,24,0.00
2013-2-9,47.1,39.3,30.1,27.9,20.6,12.7,73,48,30,30.12,29.75,15,7,26,0.01
2013-2-10,52.9,38.5,25.0,22.7,13.6,2.3,73,41,13,30.18,30.05,15,6,20,0.00
2013-2-11,46.5,39.2,27.9,29.1,18.1,2.2,90,46,19,30.20,30.01,20,11,29,0.01
2013-2-12,44.1,33.2,21.7,27.5,18.3,9.8,91,59,25,30.38,30.20,8,5,11,0.01
2013-2-13,54.9,40.3,25.7,20.4,15.7,12.3,66,39,20,30.35,30.20,6,3,7,0.00
2013-2-14,61.3,51.3,41.8,18.4,16.4,13.8,38,26,16,30.24,30.11,9,4,11,0.00
2013-2-15,60.7,48.6,39.3,21.6,12.2,-6.4,48,26,7,30.35,30.19,10,4,14,0.00
2013-2-16,62.9,51.1,42.3,11.5,7.2,1.8,27,17,9,30.36,30.11,10,5,15,0.00
2013-2-17,65.0,50.0,36.6,11.4,4.0,-4.2,27,16,8,30.11,29.92,13,6,26,0.00
2013-2-18,63.5,53.6,38.3,13.2,6.4,-1.5,28,15,8,30.08,29.97,12,6,17,0.00
2013-2-19,56.7,51.8,45.4,38.5,19.1,-0.6,67,31,11,29.98,29.70,22,12,34,0.00
2013-2-20,45.4,36.8,29.9,32.0,24.8,11.9,91,65,26,29.93,29.67,20,12,31,0.96
2013-2-21,45.5,37.5,31.2,28.9,25.5,21.3,80,63,41,30.22,30.10,9,4,14,0.17
2013-2-22,53.3,38.3,28.8,30.8,27.3,23.5,84,67,36,30.26,30.13,9,2,13,0.00
2013-2-23,63.2,44.8,27.2,31.2,23.3,15.7,80,49,19,30.25,29.92,12,4,15,0.00
2013-2-24,48.1,41.4,32.1,21.3,12.0,1.0,44,30,16,30.13,29.79,20,9,28,0.00
2013-2-25,53.1,38.9,29.5,13.3,8.0,2.8,45,29,13,30.30,30.13,10,5,12,0.00
2013-2-26,63.1,43.2,28.1,13.6,7.9,-0.8,51,27,8,30.17,30.01,16,5,22,0.00
2013-2-27,56.3,46.3,33.8,11.4,6.2,1.0,34,20,13,30.28,30.17,6,4,9,0.00
2013-2-28,58.0,47.5,36.3,5.4,-0.4,-10.0,24,14,6,30.39,30.25,11,6,14,0.00
2013-3-1,43.1,42.7,42.2,2.4,2.0,1.6,18,18,18,30.38,30.38,7,7,8,0.00
2013-3-2,74.6,63.8,52.2,18.2,8.7,-6.2,25,12,4,30.38,30.16,9,5,14,0.00
2013-3-3,76.1,67.4,60.4,15.4,4.0,-5.2,15,8,4,30.10,29.91,11,5,20,0.00
2013-3-4,66.9,60.3,44.8,26.9,14.1,-14.9,46,19,4,30.05,29.78,20,11,30,0.00
2013-3-5,69.4,63.0,46.8,25.7,20.2,13.9,39,20,12,30.17,30.05,12,7,17,0.00
2013-3-6,74.6,65.0,55.4,30.4,19.4,-1.7,25,18,8,30.05,29.86,12,7,17,0.00
2013-3-7,67.9,61.5,56.0,28.1,21.1,14.7,28,21,13,29.92,29.83,12,7,16,0.00
2013-3-8,57.8,49.0,40.5,41.4,33.5,21.6,79,58,25,29.95,29.75,24,12,34,1.06
2013-3-9,48.3,40.1,32.7,31.4,26.7,19.6,79,60,33,30.17,29.91,20,6,25,0.00
2013-3-10,55.1,43.9,32.2,33.7,27.7,20.2,88,56,26,30.26,30.16,11,6,15,0.00
2013-3-11,66.6,50.9,36.6,27.3,22.8,15.1,63,36,15,30.26,30.08,6,4,12,0.00
2013-3-12,72.7,56.6,40.1,28.4,21.0,9.2,55,28,9,30.17,30.07,6,4,9,0.00
2013-3-13,76.5,65.2,51.9,23.7,16.6,11.1,27,16,9,30.18,30.04,7,4,13,0.00
2013-3-14,80.1,68.4,55.3,20.6,13.3,5.5,25,13,6,30.15,30.01,7,4,12,0.00
2013-3-15,82.0,72.7,64.7,15.1,10.0,2.1,13,9,5,29.91,29.88,13,7,16,0.00
2013-3-16,77.9,66.8,52.0,20.4,11.0,2.8,24,12,7,29.89,29.73,14,7,24,0.00
2013-3-17,72.3,63.9,53.8,21.3,14.7,3.8,27,15,10,29.91,29.78,13,6,20,0.00
2013-3-18,73.9,61.5,47.6,30.5,21.3,10.8,41,23,9,29.99,29.89,13,4,18,0.00
2013-3-19,72.0,66.7,51.9,24.3,20.8,10.9,33,18,11,30.02,29.92,11,6,16,0.00
2013-3-20,77.4,68.8,55.3,27.7,22.2,16.6,30,18,11,30.06,29.87,12,6,16,0.00
2013-3-21,72.7,65.4,55.9,26.5,18.1,7.2,32,17,8,29.81,29.72,9,4,17,0.00
2013-3-22,70.4,63.6,55.1,27.9,22.2,12.9,32,21,11,29.81,29.65,16,9,24,0.00
2013-3-23,67.9,57.5,47.7,26.9,15.9,6.1,38,21,9,29.99,29.80,13,5,20,0.00
2013-3-24,70.1,56.2,41.9,15.5,8.0,1.5,30,16,8,30.03,29.86,12,4,14,0.00
2013-3-25,70.4,57.3,41.9,16.0,9.6,1.3,25,16,9,30.03,29.93,9,4,11,0.00
2013-3-26,75.4,68.4,54.7,18.1,11.2,6.4,18,11,7,30.03,29.89,13,7,21,0.00
2013-3-27,74.4,63.7,48.5,26.4,17.5,10.2,29,17,10,29.97,29.89,14,6,19,0.00
2013-3-28,74.7,66.0,49.4,30.7,21.5,8.0,41,20,8,30.05,29.93,15,6,21,0.00
2013-3-29,77.4,65.4,52.2,27.3,21.1,14.0,33,19,10,30.08,29.95,12,4,17,0.00
2013-3-30,74.9,64.5,53.3,21.9,15.4,4.5,24,15,7,30.06,29.91,12,4,15,0.00
2013-3-31,77.0,64.4,50.7,24.7,21.6,14.8,31,21,10,30.02,29.89,11,4,17,0.00
2013-4-1,77.0,72.3,63.5,25.2,17.3,7.9,21,13,7,29.98,29.82,14,9,16,0.00
2013-4-5,79.8,71.6,61.3,23.8,21.4,17.7,23,15,10,29.89,29.82,12,5,17,0.00
2013-4-6,77.0,70.8,60.5,29.5,23.8,18.5,27,17,12,29.91,29.79,9,6,18,0.00
2013-4-7,77.6,69.9,62.6,29.9,23.5,19.0,29,18,12,29.85,29.70,15,7,16,0.00
2013-4-8,69.9,62.1,50.5,34.3,29.0,21.2,45,29,19,29.70,29.40,23,16,30,0.00
2013-4-9,54.8,48.5,43.8,32.3,26.7,18.5,62,43,27,29.97,29.50,17,7,24,0.15
2013-4-10,60.9,54.4,47.6,24.6,19.6,15.6,39,26,19,30.06,29.93,14,8,17,0.00
2013-4-11,72.8,62.7,42.8,21.3,16.8,10.1,42,18,9,30.02,29.81,9,5,12,0.00
2013-4-12,72.7,60.9,47.4,22.0,18.5,13.7,34,20,12,29.85,29.72,12,6,14,0.00
2013-4-13,75.8,64.2,48.3,24.2,20.6,16.0,36,20,11,29.85,29.72,15,5,21,0.00
2013-4-14,73.5,64.1,54.1,32.1,24.0,13.1,37,23,12,29.78,29.68,13,8,21,0.00
2013-4-15,75.3,64.6,55.4,37.2,26.7,17.6,40,25,13,29.80,29.71,15,10,23,0.00
2013-4-16,73.5,67.0,58.3,44.1,23.3,9.6,59,22,10,29.78,29.69,19,15,31,0.00
2013-4-17,62.7,55.5,46.2,41.4,22.3,3.9,56,30,15,30.00,29.69,21,12,27,0.00
2013-4-18,63.4,52.0,39.5,8.4,5.2,-0.6,24,15,8,30.10,30.00,9,6,14,0.00
2013-4-19,71.1,60.4,50.8,3.2,-1.3,-5.9,12,8,5,30.24,30.00,10,5,13,0.00
2013-4-20,79.0,62.5,43.5,10.1,1.6,-4.5,16,9,5,30.01,29.88,14,5,17,0.00
2013-4-21,81.6,68.1,51.4,14.7,7.8,2.9,18,10,5,30.04,29.90,11,5,13,0.00
2013-4-22,83.4,75.9,65.6,15.2,9.7,4.7,13,8,6,29.95,29.78,10,6,15,0.00
2013-4-26,79.0,70.7,57.3,13.9,4.3,-4.6,17,8,4,30.09,29.99,8,4,15,0.00
2013-4-27,80.9,70.6,56.0,18.9,13.1,7.9,23,12,7,30.09,29.87,9,5,14,0.00
2013-4-28,83.8,73.6,60.4,18.9,11.3,4.1,17,10,5,29.90,29.70,8,4,13,0.00
2013-4-29,79.2,74.8,69.3,12.0,9.8,8.0,10,8,7,29.78,29.77,6,4,7,0.00
2013-4-30,83.8,76.7,68.8,26.7,16.5,9.5,19,11,6,29.72,29.65,13,8,18,0.00
2013-5-1,81.8,72.0,63.1,21.7,16.1,10.5,18,12,7,29.93,29.72,16,7,16,0.00
2013-5-2,77.2,68.7,55.1,26.5,19.7,16.6,23,16,11,30.09,29.97,15,9,21,0.00
2013-5-3,76.8,67.2,53.3,18.0,13.0,10.3,23,13,8,30.10,29.86,12,6,18,0.00
2013-5-4,79.6,73.3,66.1,29.9,22.6,13.4,25,16,10,29.81,29.71,13,8,21,0.00
2013-5-5,78.5,71.5,62.3,32.1,24.6,17.9,28,18,11,29.87,29.76,14,9,19,0.00
2013-5-6,74.7,68.2,60.7,36.6,30.3,27.4,38,25,18,29.93,29.86,11,7,19,0.00
2013-5-7,62.0,58.5,56.7,37.9,32.7,27.2,46,38,29,29.95,29.88,19,8,20,0.00
2013-5-12,77.2,70.0,63.5,33.4,27.8,22.2,30,21,14,30.14,30.01,17,10,22,0.00
2013-5-13,80.9,74.6,62.4,32.3,20.0,8.9,28,14,7,30.08,29.92,15,8,19,0.00
2013-5-14,84.7,77.8,71.3,32.6,27.0,20.5,24,16,10,29.97,29.82,16,6,28,0.00
2013-5-15,84.9,78.5,71.5,31.5,28.2,24.8,22,16,12,29.94,29.79,13,6,21,0.00
2013-5-16,84.9,78.7,62.3,29.0,20.9,12.8,26,12,7,29.86,29.73,14,8,19,0.00
2013-5-17,82.4,75.6,69.1,27.5,20.1,10.7,21,13,7,29.82,29.75,16,8,22,0.00
2013-5-18,80.9,71.8,59.0,34.4,20.3,9.2,29,15,7,29.86,29.77,15,7,22,0.00
2013-5-19,84.5,76.9,64.7,30.7,17.8,9.4,25,12,6,29.87,29.74,11,4,13,0.00
2013-5-20,84.1,76.9,67.9,31.1,22.4,15.0,22,13,9,29.84,29.71,14,7,21,0.00
2013-5-21,86.5,78.7,66.4,17.5,12.0,5.8,12,8,5,29.86,29.73,11,6,16,0.00
2013-5-22,87.8,81.6,73.7,21.7,14.9,7.9,11,8,5,29.77,29.65,14,8,16,0.00
2013-5-23,77.0,73.6,69.4,17.0,14.7,7.6,13,11,7,29.76,29.69,7,5,11,0.00
2013-5-31,92.1,82.4,69.3,33.8,30.4,24.6,26,16,9,29.75,29.69,11,6,15,0.00
2013-6-1,94.5,87.1,77.9,29.1,23.9,15.7,16,10,6,29.69,29.63,10,5,11,0.00
2013-6-2,83.6,83.3,83.0,32.6,32.4,32.2,16,16,16,29.71,29.71,5,4,7,0.00
2013-6-3,91.6,85.4,78.3,28.9,21.9,14.2,16,10,6,29.75,29.66,12,7,18,0.00
2013-6-4,90.5,81.8,66.8,39.7,29.1,22.2,24,15,9,29.79,29.71,14,6,18,0.00
2013-6-5,91.4,75.9,62.3,33.9,26.4,9.6,31,18,5,29.81,29.74,9,4,15,0.00
2013-6-6,94.0,86.6,74.0,20.7,15.1,10.8,13,7,5,29.71,29.62,7,4,13,0.00
2013-6-7,90.1,81.2,68.9,25.6,22.2,19.3,17,11,9,29.71,29.63,6,4,9,0.00
2013-6-8,95.6,84.1,68.6,27.5,22.4,17.3,18,11,6,29.73,29.63,13,6,20,0.00
2013-6-9,96.3,86.7,68.8,33.0,21.7,15.9,18,10,6,29.80,29.67,13,7,17,0.00
2013-6-10,98.7,85.6,69.6,26.8,22.8,17.3,17,10,7,29.80,29.65,11,5,14,0.00
2013-6-11,99.7,90.9,79.9,26.6,21.7,16.5,13,8,6,29.78,29.65,13,7,18,0.00
2013-6-12,100.2,88.1,74.2,30.8,24.4,21.4,15,10,6,29.80,29.65,13,7,18,0.00
2013-6-13,95.6,87.1,74.4,40.3,34.5,24.2,25,16,10,29.79,29.64,15,7,19,0.00
2013-6-14,89.9,79.9,68.9,59.8,47.8,36.4,65,34,21,29.76,29.65,14,6,20,0.45
2013-6-15,89.3,79.9,71.5,56.8,50.8,43.1,58,38,22,29.86,29.76,14,6,22,0.07
2013-6-16,92.9,80.9,65.3,53.2,43.7,28.2,65,31,11,29.89,29.77,13,5,15,0.00
2013-6-17,93.2,85.7,72.7,31.2,23.6,17.6,16,11,7,29.85,29.73,12,5,15,0.00
2013-6-18,93.8,82.6,66.8,29.3,18.8,9.9,21,10,5,29.79,29.68,11,6,15,0.00
2013-6-19,94.5,86.5,72.1,32.9,21.8,12.2,15,10,6,29.70,29.60,14,7,19,0.00
2013-6-20,93.8,86.0,76.8,36.7,20.1,1.3,22,10,4,29.73,29.64,14,8,20,0.00
2013-6-21,93.4,83.4,70.6,37.7,27.1,2.5,27,14,4,29.77,29.68,12,6,22,0.00
2013-6-22,93.2,85.3,76.1,33.4,23.0,14.8,20,11,6,29.78,29.65,14,6,20,0.00
2013-6-23,91.0,83.8,74.9,33.9,28.4,17.3,20,14,8,29.74,29.63,15,8,19,0.00
2013-6-24,90.7,83.5,76.5,37.3,31.5,23.1,24,16,13,29.77,29.65,14,8,21,0.00
2013-6-25,93.4,84.7,71.6,37.6,23.1,16.0,25,11,6,29.84,29.75,11,5,13,0.00
2013-6-26,94.5,85.9,70.1,32.5,24.2,17.7,17,11,9,29.93,29.81,10,5,15,0.00
2013-6-27,92.7,82.8,72.1,35.0,28.6,19.4,16,14,11,29.94,29.88,10,5,15,0.00
2013-6-28,101.5,92.5,82.8,34.2,27.3,23.6,15,10,7,29.85,29.70,13,5,17,0.00
2013-6-29,99.4,91.0,81.4,37.1,29.5,18.0,18,12,6,29.79,29.63,11,4,14,0.00
2013-6-30,98.2,84.3,68.8,60.7,43.3,32.5,74,30,11,29.77,29.58,15,6,20,0.35
2013-7-1,93.6,83.4,68.4,58.6,50.6,41.1,70,35,18,29.86,29.72,7,3,12,0.05
2013-7-2,91.0,81.6,68.6,58.4,49.7,43.5,70,35,20,29.95,29.76,16,6,20,0.10
2013-7-3,92.3,83.3,67.8,56.1,47.4,43.2,65,31,20,29.89,29.64,11,6,14,0.00
2013-7-4,92.7,84.9,74.9,56.8,50.9,42.8,47,32,19,29.77,29.63,12,5,13,0.00
2013-7-5,88.2,75.7,67.6,63.8,57.4,50.0,83,55,30,29.80,29.67,18,5,20,0.22
2013-7-6,83.6,73.3,68.3,61.9,57.2,54.8,70,58,38,29.79,29.74,4,2,6,0.00
2013-7-8,93.7,84.7,71.7,63.0,54.6,48.8,74,37,27,29.91,29.76,14,5,17,3.83
2013-7-9,91.0,77.7,64.1,64.4,60.4,55.6,90,59,33,29.92,29.75,24,8,26,6.38
2013-7-10,84.1,76.7,62.9,66.3,63.2,58.6,89,64,47,29.97,29.81,19,6,21,0.96
2013-7-11,85.6,75.3,64.4,66.1,63.0,58.8,91,67,42,29.95,29.78,8,3,12,0.02
2013-7-12,86.5,76.2,66.8,65.4,61.3,55.5,93,63,38,29.90,29.79,14,4,19,0.04
2013-7-13,77.2,68.9,65.9,61.3,58.1,55.9,77,69,58,29.90,29.79,14,3,15,0.09
2013-7-14,90.3,80.4,68.4,62.5,58.6,54.9,71,48,33,29.86,29.72,10,3,10,0.00
2013-7-15,86.1,76.1,63.9,63.0,59.8,56.7,94,59,42,29.86,29.66,18,5,23,1.24
2013-7-16,75.2,67.8,63.4,64.2,62.1,60.7,95,83,61,29.95,29.82,15,4,22,0.97
2013-7-17,83.1,77.3,69.2,61.4,57.3,54.7,72,51,39,30.06,29.91,12,5,16,0.00
2013-7-18,76.1,70.1,64.1,61.1,59.2,57.1,88,69,54,29.96,29.83,8,3,14,0.76
2013-7-19,70.4,66.9,64.5,63.7,61.4,58.7,89,83,72,29.93,29.88,9,2,11,0.04
2013-7-20,75.0,71.0,67.4,65.7,63.5,61.2,87,77,63,29.85,29.76,9,4,13,0.06
2013-7-21,81.3,73.7,64.5,63.4,61.1,58.0,90,66,47,29.89,29.79,12,5,16,0.00
2013-7-22,82.9,71.0,64.5,64.7,60.7,58.9,83,71,46,29.93,29.83,10,2,12,0.05
2013-7-23,84.3,73.3,66.2,66.4,61.8,58.9,88,69,44,29.94,29.80,14,4,16,0.70
2013-7-24,80.9,73.6,65.9,67.0,62.9,59.2,87,70,50,29.90,29.82,11,2,13,0.07
2013-7-25,82.9,74.6,66.8,66.2,63.7,60.8,87,70,48,29.98,29.86,8,2,11,0.00
2013-7-26,84.7,73.8,67.9,66.5,63.1,57.2,84,70,49,30.04,29.94,15,3,16,0.03
2013-7-27,76.8,71.0,67.3,66.5,62.4,58.8,82,74,65,29.99,29.84,6,2,7,1.23
2013-7-28,86.6,79.7,68.2,64.6,58.6,52.8,74,50,35,29.87,29.75,11,4,15,0.00
2013-7-29,87.1,79.2,71.6,60.4,55.3,50.1,54,44,34,29.95,29.81,10,3,16,0.00
2013-7-30,87.2,76.2,65.7,59.8,55.1,52.4,67,49,31,30.03,29.92,8,3,12,0.00
2013-7-31,79.4,73.2,67.0,61.9,58.8,54.9,82,61,47,30.00,29.88,10,4,13,0.12
2013-8-1,80.7,71.5,65.6,64.5,60.4,56.6,90,69,48,30.00,29.88,16,2,19,0.10
2013-8-2,82.2,73.4,67.7,65.1,61.0,55.2,80,66,49,29.95,29.87,13,4,21,0.00
2013-8-3,86.6,78.6,67.9,61.0,57.5,53.5,63,49,39,29.97,29.86,6,2,11,0.00
2013-8-4,85.1,77.9,71.7,65.9,60.0,55.6,71,54,43,29.94,29.83,6,3,11,0.00
2013-8-5,78.7,70.5,65.2,62.9,58.7,54.5,87,68,44,29.95,29.85,14,2,20,1.25
2013-8-6,77.5,69.3,62.2,63.4,59.9,56.6,89,73,49,29.99,29.90,9,3,13,0.07
2013-8-7,82.8,74.4,61.9,61.1,55.1,46.0,81,52,37,30.02,29.90,9,4,13,0.00
2013-8-8,85.7,75.0,63.2,58.6,50.3,44.7,59,43,30,29.93,29.81,6,3,8,0.00
2013-8-9,87.1,81.5,66.7,60.1,51.4,45.8,50,36,28,29.87,29.80,8,5,11,0.00
2013-8-10,86.2,78.7,70.6,60.9,54.3,48.0,68,45,30,29.95,29.84,13,3,16,0.00
2013-8-11,84.1,76.1,67.9,63.0,59.7,54.6,73,58,43,29.94,29.80,8,4,15,0.00
2013-8-12,89.9,79.6,69.5,62.7,57.3,47.5,67,47,31,29.89,29.78,9,3,14,0.00
2013-8-13,89.6,79.9,67.2,60.7,54.0,41.5,59,42,29,29.93,29.78,14,3,14,0.00
2013-8-14,89.8,76.3,68.0,66.4,57.7,50.3,74,54,36,29.95,29.77,18,6,24,0.14
2013-8-15,88.2,77.1,67.6,62.0,57.4,54.2,72,52,33,29.94,29.83,5,2,7,0.00
2013-8-16,83.0,73.3,67.4,62.8,57.5,53.3,67,58,46,29.91,29.86,5,1,8,0.00
2013-8-17,91.8,80.8,66.8,63.1,55.0,48.1,69,44,25,29.91,29.76,7,3,8,0.00
2013-8-18,93.4,78.2,68.5,66.2,54.4,51.0,64,45,26,29.89,29.77,16,3,16,1.27
2013-8-19,90.2,78.6,67.6,61.0,54.9,49.2,63,45,28,29.91,29.77,11,2,13,0.00
2013-8-20,90.4,76.0,66.2,62.8,57.0,52.1,87,55,30,29.92,29.74,11,3,15,0.11
2013-8-21,86.2,74.2,63.4,62.6,58.7,54.1,87,61,35,29.92,29.83,6,2,7,0.03
2013-8-22,87.6,75.7,64.7,63.7,56.6,50.0,75,53,29,29.92,29.77,9,2,10,0.00
2013-8-23,85.7,75.4,62.6,60.3,54.9,51.7,90,51,32,29.87,29.69,14,3,19,0.41
2013-8-24,68.6,62.9,59.7,61.2,59.4,57.3,94,89,73,29.91,29.83,13,3,15,0.29
2013-8-25,79.0,73.1,68.0,65.1,63.0,58.0,88,72,53,29.93,29.86,10,2,15,0.03
2013-8-26,85.8,77.5,67.2,64.8,59.1,53.9,88,55,36,29.94,29.78,10,4,14,0.00
2013-8-27,85.5,77.8,68.8,59.3,55.8,52.9,62,47,33,29.86,29.80,9,4,12,0.00
2013-8-28,80.6,74.4,68.0,64.6,60.9,57.1,84,64,47,29.93,29.81,9,6,17,0.02
2013-8-29,76.5,69.1,65.2,64.8,63.0,60.2,94,82,60,30.05,29.91,10,2,13,0.14
2013-8-30,83.9,71.1,64.1,65.6,62.3,57.8,94,76,44,30.06,29.95,7,1,10,0.01
2013-8-31,87.1,79.8,71.0,61.6,58.6,55.2,59,49,37,29.97,29.81,8,4,12,0.00
2013-9-1,89.0,78.0,66.5,62.8,57.5,53.9,72,51,32,29.88,29.75,9,3,12,0.00
2013-9-2,73.3,68.9,62.1,62.0,57.0,53.5,85,66,56,29.93,29.82,13,5,18,0.35
2013-9-4,86.7,79.8,71.1,58.5,53.5,49.4,51,41,28,29.95,29.84,10,4,15,0.00
2013-9-5,87.4,77.9,68.2,55.9,52.6,50.5,54,42,30,29.93,29.82,11,3,16,0.00
2013-9-6,86.6,76.2,64.0,58.7,53.6,49.2,83,46,32,29.93,29.77,16,4,19,0.09
2013-9-7,76.6,67.8,63.2,65.5,60.8,51.5,92,79,50,29.94,29.84,9,2,11,0.54
2013-9-8,77.2,68.1,63.1,64.8,61.3,59.2,93,80,55,29.90,29.75,10,2,12,0.17
2013-9-9,69.5,65.2,62.2,64.0,61.4,58.2,94,88,77,29.83,29.74,12,3,15,0.66
2013-9-10,79.9,70.1,60.8,64.0,57.8,51.8,92,66,38,29.91,29.81,8,2,11,0.01
2013-9-11,63.5,62.0,60.0,55.5,54.8,54.1,81,77,75,29.92,29.91,4,2,6,0.00
2013-9-27,73.3,62.9,54.5,46.0,43.5,38.4,64,50,35,29.94,29.77,6,2,10,0.00
2013-9-28,76.5,66.3,51.3,46.2,42.1,35.2,61,42,32,30.08,29.94,8,3,9,0.00
2013-9-29,81.6,70.5,58.1,47.5,43.0,38.0,59,38,28,30.08,29.93,4,2,8,0.00
2013-9-30,61.0,59.8,58.6,38.8,38.3,37.7,47,45,43,29.98,29.97,4,3,5,0.00
2013-10-1,83.7,74.1,64.3,42.4,39.6,38.1,39,29,22,29.91,29.85,9,3,12,0.00
2013-10-2,81.1,68.0,53.8,46.0,39.8,33.9,59,37,20,29.93,29.82,9,4,14,0.00
2013-10-3,81.5,70.2,53.9,47.4,42.0,36.2,60,38,22,29.86,29.73,11,5,17,0.00
2013-10-4,79.3,67.8,53.1,49.8,37.6,26.9,69,36,16,29.94,29.76,11,5,19,0.00
2013-10-5,74.8,63.4,48.8,37.4,29.6,20.2,52,29,20,30.10,29.94,7,3,10,0.00
2013-10-6,76.9,67.2,59.6,32.2,26.8,23.0,28,22,15,30.15,30.04,9,3,13,0.00
2013-10-7,82.5,72.8,56.1,36.6,32.6,22.6,32,23,17,30.10,29.89,9,4,12,0.00
2013-10-8,77.9,71.0,63.1,41.1,35.8,28.5,36,28,21,29.90,29.77,13,7,20,0.00
2013-10-9,75.8,66.9,52.6,46.7,38.1,33.8,51,35,22,29.79,29.70,18,12,32,0.00
2013-10-10,66.0,58.9,44.6,46.5,38.5,34.2,77,48,31,29.93,29.67,24,11,36,0.00
2013-10-11,72.5,60.0,42.6,42.3,35.4,28.4,82,43,20,30.03,29.93,11,4,19,0.00
2013-10-12,78.1,68.5,50.3,43.2,36.8,30.3,54,33,19,29.99,29.88,14,8,22,0.00
2013-10-13,78.0,69.6,63.1,49.3,42.7,38.2,57,39,25,29.93,29.84,16,10,25,0.00
2013-10-14,73.5,65.8,55.5,52.6,47.2,42.2,78,52,38,29.95,29.87,12,4,18,0.00
2013-10-15,77.0,65.4,51.5,48.6,41.3,30.2,73,43,30,29.95,29.83,9,4,11,0.00
2013-10-16,74.2,60.3,46.8,31.0,23.7,15.2,46,26,12,30.06,29.93,8,2,12,0.00
2013-10-17,75.9,60.0,44.5,27.8,20.6,16.3,34,23,13,30.06,29.92,5,2,8,0.00
2013-10-18,73.3,60.7,47.2,23.0,18.4,14.8,31,20,11,30.05,29.97,6,4,8,0.00
2013-10-19,76.5,61.8,48.8,19.8,16.1,12.6,29,18,9,30.09,29.95,7,4,11,0.00
2013-10-20,76.7,66.6,53.1,17.1,12.0,7.0,21,12,7,29.99,29.86,9,4,12,0.00
2013-10-21,77.0,64.5,49.1,20.0,13.4,9.4,23,14,8,30.03,29.94,6,4,8,0.00
2013-10-22,77.0,65.7,51.0,24.1,17.9,12.8,26,17,10,30.09,29.96,8,4,11,0.00
2013-10-23,79.6,71.2,56.7,30.9,26.4,22.0,27,19,14,30.00,29.88,9,5,13,0.00
2013-10-24,79.2,71.3,60.1,34.2,27.0,20.0,27,19,11,29.94,29.83,13,6,19,0.00
2013-10-25,79.0,65.3,52.2,28.8,24.6,18.6,39,23,11,30.07,29.94,10,5,14,0.00
2013-10-26,76.5,67.2,49.8,28.1,23.0,17.2,35,20,11,30.13,30.03,5,3,9,0.00
2013-10-28,71.1,65.7,60.9,28.5,24.1,16.8,29,21,13,29.92,29.80,14,11,20,0.00
2013-10-29,71.1,64.1,58.2,42.8,30.6,16.9,56,30,13,29.92,29.82,17,11,24,0.00
2013-10-30,67.1,56.5,40.1,43.1,34.7,25.5,65,46,25,30.03,29.84,18,9,27,0.00
2013-10-31,68.5,54.9,38.5,34.1,24.5,15.0,66,33,19,30.17,30.03,5,2,7,0.00
2013-11-1,70.9,59.2,40.9,24.3,19.4,14.9,36,22,14,30.23,30.10,5,3,9,0.00
2013-11-2,75.1,65.3,57.9,34.2,23.9,17.5,33,21,14,29.96,29.90,10,3,17,0.00
2013-11-3,71.0,61.6,52.3,48.2,42.3,29.8,75,50,35,29.92,29.75,12,5,22,0.04
2013-11-4,59.9,56.1,53.7,43.7,41.2,39.8,61,57,54,29.82,29.78,8,4,14,0.00
2013-11-9,72.2,64.3,56.6,41.2,35.8,33.0,47,35,25,30.10,30.03,8,4,13,0.00
2013-11-10,77.0,65.8,50.8,39.8,35.1,32.2,54,33,22,30.14,30.01,7,3,12,0.00
2013-11-11,77.3,65.8,52.7,41.5,37.8,32.2,48,36,26,30.11,29.98,5,3,13,0.00
2013-11-12,71.5,62.7,52.1,47.2,42.9,38.1,62,49,38,30.24,30.10,12,6,18,0.00
2013-11-13,66.1,57.0,49.6,43.0,40.8,38.3,68,55,43,30.24,30.08,7,3,14,0.00
2013-11-14,74.9,61.9,47.5,43.9,35.6,28.6,72,40,19,30.09,29.92,9,3,10,0.00
2013-11-15,64.8,59.3,52.2,49.0,45.4,35.4,80,60,44,29.92,29.63,25,14,37,0.00
2013-11-16,65.0,57.7,53.3,46.4,41.7,36.7,67,56,37,29.90,29.61,28,14,33,0.00
2013-11-17,67.8,58.2,47.1,47.2,40.9,37.1,69,54,37,30.07,29.88,20,6,22,0.00
2013-11-18,70.4,59.2,48.6,49.7,40.7,28.0,88,54,23,30.09,29.97,10,4,15,0.00
2013-11-19,72.9,61.9,47.5,44.8,32.6,25.2,59,35,20,30.03,29.86,11,5,16,0.00
2013-11-20,59.5,54.2,49.6,30.2,27.7,23.8,41,36,27,29.90,29.84,12,4,14,0.00
2013-11-24,42.8,39.8,37.8,36.3,34.2,32.6,84,80,77,30.24,30.20,6,2,6,0.00
2013-11-25,52.8,44.0,34.1,35.1,31.8,26.7,86,64,37,30.35,30.21,9,4,12,0.01
2013-11-26,53.8,45.2,37.5,30.4,24.9,17.2,75,46,31,30.42,30.29,9,4,13,0.00
2013-11-27,52.6,44.8,40.6,22.4,18.9,15.3,47,36,25,30.34,30.14,8,4,11,0.00
2013-11-28,52.2,41.5,37.2,24.6,21.0,19.7,51,44,33,30.23,30.17,9,5,13,0.00
2013-11-29,59.5,57.2,55.9,37.4,36.0,34.3,49,45,41,30.14,30.12,6,2,12,0.00
2013-11-30,68.3,56.5,46.2,39.9,33.1,22.1,65,43,19,30.18,30.08,10,3,13,0.00
2013-12-1,62.7,57.7,49.5,39.2,32.5,25.1,49,39,26,30.20,30.11,8,3,8,0.00
2013-12-2,70.4,56.9,45.4,33.0,23.2,11.0,55,29,15,30.15,29.95,6,3,7,0.00
2013-12-3,66.0,51.0,41.2,40.6,19.4,5.1,60,32,9,29.95,29.76,16,4,20,0.00
2013-12-4,61.6,53.9,47.6,41.8,32.4,15.7,66,47,17,29.85,29.71,18,13,25,0.00
2013-12-5,48.2,43.1,33.1,38.1,33.2,24.4,90,69,51,30.10,29.80,17,9,26,0.20
2013-12-6,49.7,35.1,24.2,29.1,23.8,16.2,88,66,26,30.28,30.09,11,3,16,0.01
2013-12-7,55.3,42.3,26.7,26.9,14.6,0.6,78,40,11,30.22,30.07,15,6,20,0.00
2013-12-8,54.2,41.4,29.9,29.8,24.2,12.2,72,52,28,30.17,30.06,8,3,13,0.00
2013-12-9,51.7,38.3,29.4,32.0,23.2,11.0,85,57,23,30.40,30.12,6,3,8,0.00
2013-12-10,56.0,44.0,33.1,23.7,14.7,6.3,49,31,20,30.40,30.22,8,4,11,0.00
2013-12-11,62.1,52.8,37.9,36.8,27.3,15.3,59,38,28,30.32,30.22,9,6,12,0.00
2013-12-12,62.4,52.0,42.6,43.1,34.9,17.6,74,54,29,30.28,30.08,11,5,17,0.00
2013-12-13,56.2,46.0,34.4,35.2,27.0,20.4,76,49,27,30.22,30.11,10,4,16,0.00
2013-12-14,56.2,44.6,33.1,27.1,21.5,14.6,70,43,20,30.39,30.22,8,4,12,0.00
2013-12-15,61.0,47.7,34.0,19.2,13.9,8.8,49,27,13,30.40,30.28,8,4,11,0.00
2013-12-16,68.3,54.0,38.8,18.5,13.9,8.5,39,22,11,30.36,30.25,7,3,11,0.00
2013-12-17,71.3,57.0,43.3,20.1,15.8,12.1,32,21,11,30.31,30.16,7,4,9,0.00
2013-12-18,70.4,58.4,50.2,24.9,17.1,11.2,27,20,10,30.17,29.87,14,5,15,0.00
2013-12-19,59.8,54.1,49.5,22.9,16.6,9.8,28,23,14,29.88,29.69,17,12,28,0.00
2013-12-20,49.8,41.7,34.3,38.3,30.0,17.6,90,65,28,29.89,29.60,19,6,21,0.12
2013-12-21,35.6,34.0,32.4,29.2,27.7,26.6,80,77,74,29.92,29.86,5,2,6,0.00
2013-12-29,57.3,50.5,41.9,23.7,17.5,12.5,39,28,17,30.20,30.01,7,4,10,0.00
2013-12-30,59.2,46.4,34.1,21.4,17.0,9.8,57,33,14,30.35,30.20,6,4,9,0.00
2013-12-31,61.8,51.4,41.8,17.1,14.2,10.2,33,23,14,30.33,30.19,7,4,8,0.00
2014-1-1,65.6,51.2,38.2,17.4,14.7,12.4,39,24,13,30.23,30.12,6,4,8,0.00
2014-1-2,63.2,52.0,41.2,19.3,17.5,15.9,40,26,17,30.28,30.15,8,4,9,0.00